MDT,Max TemperatureF,Mean TemperatureF,Min TemperatureF,Max Dew PointF,MeanDew PointF,Min DewpointF,Max Humidity, Mean Humidity, Min Humidity, Max Sea Level PressureIn, Mean Sea Level PressureIn, Min Sea Level PressureIn, Max VisibilityMiles, Mean VisibilityMiles, Min VisibilityMiles, Max Wind SpeedMPH, Mean Wind SpeedMPH, Max Gust SpeedMPH,PrecipitationIn, CloudCover, Events, WindDirDegrees
2013-8-1,88,73,58,58,51,48,67,48,29,30.06,29.95,29.85,10,10,6,25,12,30,0.27,2,Rain-Thunderstorm,58
2013-8-2,78,69,59,59,57,55,90,72,54,30.06,29.96,29.87,10,10,5,24,10,31,0.21,5,Rain,65
2013-8-3,86,72,57,61,59,55,93,67,40,30.12,30.03,29.89,10,9,1,26,9,45,0.34,4,Rain-Thunderstorm,66
2013-8-4,83,71,58,63,59,55,100,70,40,30.08,30.01,29.94,10,10,7,13,6,16,0.01,4,,4
2013-8-5,89,73,57,63,57,51,97,64,31,29.99,29.88,29.78,10,9,2,47,4,61,0.07,1,Rain-Thunderstorm,102
2013-8-6,83,71,58,59,52,46,87,58,28,29.99,29.91,29.82,10,10,10,22,10,28,0.00,1,,312
2013-8-7,80,67,54,54,52,46,93,65,36,30.08,30.00,29.93,10,10,10,23,11,28,0.00,2,,49
2013-8-8,81,67,53,53,49,46,83,59,35,30.07,30.04,30.01,10,10,10,15,10,20,0.00,0,,53
2013-8-9,81,69,56,53,51,48,83,60,36,30.16,30.11,30.07,10,10,10,18,10,23,0.00,0,,63
2013-8-10,86,72,58,58,55,51,86,62,37,30.09,30.02,29.94,10,10,10,22,9,26,0.00,0,,74
2013-8-11,87,73,58,61,58,55,93,66,39,30.07,30.02,29.97,10,10,10,16,11,21,0.00,0,,62
2013-8-12,89,75,60,59,58,52,97,66,34,30.07,30.01,29.97,10,10,10,24,9,30,0.39,0,Thunderstorm,68
2013-8-13,83,74,64,62,59,55,87,67,47,30.13,30.06,30.00,10,9,2,17,7,29,0.18,3,Rain-Thunderstorm,163
2013-8-14,83,72,60,61,58,54,90,64,37,30.10,30.01,29.94,10,10,2,18,8,22,0.12,2,Rain-Thunderstorm,100
2013-8-15,88,73,57,61,56,52,93,61,29,30.03,29.98,29.95,10,10,10,13,4,17,0.00,0,,60
2013-8-16,94,79,63,61,57,50,84,54,23,29.96,29.90,29.85,10,10,10,17,10,21,0.00,0,,149
2013-8-17,93,80,67,61,55,48,76,50,23,29.88,29.84,29.81,10,10,10,17,8,22,0.00,0,,194
2013-8-18,89,75,61,56,53,49,78,52,26,29.96,29.89,29.82,10,10,10,28,9,35,0.00,0,,96
2013-8-19,95,79,63,56,49,39,73,44,15,29.88,29.82,29.75,10,10,10,13,6,18,0.00,0,,190
2013-8-20,94,77,59,49,45,38,64,39,14,29.84,29.81,29.75,10,10,10,17,8,31,0.00,0,,307
2013-8-21,88,75,61,58,53,47,60,47,34,30.04,29.95,29.84,10,10,8,21,12,26,0.00,0,,40
2013-8-22,87,73,59,60,55,49,67,52,37,30.09,30.00,29.88,10,10,10,18,12,25,0.00,0,,113
2013-8-23,96,82,68,62,58,53,76,50,24,29.85,29.74,29.64,10,10,9,23,7,29,T,0,Rain-Thunderstorm,165
2013-8-24,90,79,68,62,55,51,78,53,27,29.84,29.78,29.71,10,10,10,17,7,21,T,2,Rain,201
2013-8-25,94,78,61,59,55,53,78,52,26,29.95,29.88,29.82,10,10,10,13,6,18,0.00,1,,137
2013-8-26,98,84,69,60,54,45,70,44,17,29.83,29.81,29.79,10,10,10,18,6,24,0.00,0,,23
2013-8-27,94,83,71,61,54,50,64,44,23,29.91,29.86,29.81,10,10,9,10,5,15,T,1,Rain,177
2013-8-28,97,83,68,66,63,57,90,59,27,29.94,29.86,29.75,10,9,2,35,10,45,0.14,3,Rain-Thunderstorm,97
2013-8-29,94,79,63,65,57,49,93,58,22,30.00,29.95,29.86,10,10,10,12,6,14,0.00,0,,259
2013-8-30,96,78,60,63,55,48,84,52,20,29.96,29.89,29.80,10,10,4,49,7,60,T,0,Rain-Thunderstorm,166
2013-8-31,83,70,57,61,46,37,87,54,21,30.06,29.99,29.84,10,10,10,24,11,30,0.00,0,,324